sensor_id;sensor_type;location;lat;lon;timestamp;temperature;humidity
23251;DHT22;11794;49.730;10.088;2023-04-15T00:01:22;5.40;99.90
23251;DHT22;11794;49.730;10.088;2023-04-15T00:03:51;5.40;99.90
23251;DHT22;11794;49.730;10.088;2023-04-15T00:06:20;5.40;99.90
23251;DHT22;11794;49.730;10.088;2023-04-15T00:08:46;5.40;99.90
23251;DHT22;11794;49.730;10.088;2023-04-15T00:11:12;5.40;99.90
23251;DHT22;11794;49.730;10.088;2023-04-15T00:13:38;5.40;99.90
23251;DHT22;11794;49.730;10.088;2023-04-15T00:16:05;5.50;99.90
23251;DHT22;11794;49.730;10.088;2023-04-15T00:18:31;5.40;99.90
23251;DHT22;11794;49.730;10.088;2023-04-15T00:20:57;5.40;99.90
23251;DHT22;11794;49.730;10.088;2023-04-15T00:23:23;5.50;99.90
23251;DHT22;11794;49.730;10.088;2023-04-15T00:25:48;5.50;99.90
23251;DHT22;11794;49.730;10.088;2023-04-15T00:28:14;5.50;99.90
23251;DHT22;11794;49.730;10.088;2023-04-15T00:30:39;5.60;99.90
23251;DHT22;11794;49.730;10.088;2023-04-15T00:33:05;5.60;99.90
23251;DHT22;11794;49.730;10.088;2023-04-15T00:35:32;5.80;99.90
23251;DHT22;11794;49.730;10.088;2023-04-15T00:37:58;5.80;99.90
23251;DHT22;11794;49.730;10.088;2023-04-15T00:40:24;5.90;99.90
23251;DHT22;11794;49.730;10.088;2023-04-15T00:42:51;5.80;99.90
23251;DHT22;11794;49.730;10.088;2023-04-15T00:45:17;5.80;99.90
23251;DHT22;11794;49.730;10.088;2023-04-15T00:47:43;5.90;99.90
23251;DHT22;11794;49.730;10.088;2023-04-15T00:50:10;5.90;99.90
23251;DHT22;11794;49.730;10.088;2023-04-15T00:52:37;5.80;99.90
23251;DHT22;11794;49.730;10.088;2023-04-15T00:55:03;5.80;99.90
23251;DHT22;11794;49.730;10.088;2023-04-15T00:57:29;5.80;99.90
23251;DHT22;11794;49.730;10.088;2023-04-15T00:59:56;5.80;99.90
23251;DHT22;11794;49.730;10.088;2023-04-15T01:02:22;5.80;99.90
23251;DHT22;11794;49.730;10.088;2023-04-15T01:04:48;5.80;99.90
23251;DHT22;11794;49.730;10.088;2023-04-15T01:07:14;5.80;99.90
23251;DHT22;11794;49.730;10.088;2023-04-15T01:09:40;5.80;99.90
23251;DHT22;11794;49.730;10.088;2023-04-15T01:12:06;5.90;99.90
23251;DHT22;11794;49.730;10.088;2023-04-15T01:14:33;5.90;99.90
23251;DHT22;11794;49.730;10.088;2023-04-15T01:16:58;5.90;99.90
23251;DHT22;11794;49.730;10.088;2023-04-15T01:19:24;5.90;99.90
23251;DHT22;11794;49.730;10.088;2023-04-15T01:21:49;5.90;99.90
23251;DHT22;11794;49.730;10.088;2023-04-15T01:24:17;5.90;99.90
23251;DHT22;11794;49.730;10.088;2023-04-15T01:26:43;5.90;99.90
23251;DHT22;11794;49.730;10.088;2023-04-15T01:29:09;5.90;99.90
23251;DHT22;11794;49.730;10.088;2023-04-15T01:31:34;5.90;99.90
23251;DHT22;11794;49.730;10.088;2023-04-15T01:34:00;5.90;99.90
23251;DHT22;11794;49.730;10.088;2023-04-15T01:36:26;5.90;99.90
23251;DHT22;11794;49.730;10.088;2023-04-15T01:38:52;5.90;99.90
23251;DHT22;11794;49.730;10.088;2023-04-15T01:41:36;5.90;99.90
23251;DHT22;11794;49.730;10.088;2023-04-15T01:44:02;5.90;99.90
23251;DHT22;11794;49.730;10.088;2023-04-15T01:46:28;5.90;99.90
23251;DHT22;11794;49.730;10.088;2023-04-15T01:48:53;5.90;99.90
23251;DHT22;11794;49.730;10.088;2023-04-15T01:51:19;5.90;99.90
23251;DHT22;11794;49.730;10.088;2023-04-15T01:53:44;5.90;99.90
23251;DHT22;11794;49.730;10.088;2023-04-15T01:56:10;5.80;99.90
23251;DHT22;11794;49.730;10.088;2023-04-15T01:58:36;5.80;99.90
23251;DHT22;11794;49.730;10.088;2023-04-15T02:01:01;5.70;99.90
23251;DHT22;11794;49.730;10.088;2023-04-15T02:03:29;5.80;99.90
23251;DHT22;11794;49.730;10.088;2023-04-15T02:05:54;5.80;99.90
23251;DHT22;11794;49.730;10.088;2023-04-15T02:08:20;5.80;99.90
23251;DHT22;11794;49.730;10.088;2023-04-15T02:10:45;5.80;99.90
23251;DHT22;11794;49.730;10.088;2023-04-15T02:13:11;5.90;99.90
23251;DHT22;11794;49.730;10.088;2023-04-15T02:15:36;5.90;99.90
23251;DHT22;11794;49.730;10.088;2023-04-15T02:18:02;6.00;99.90
23251;DHT22;11794;49.730;10.088;2023-04-15T02:20:28;5.90;99.90
23251;DHT22;11794;49.730;10.088;2023-04-15T02:22:55;5.90;99.90
23251;DHT22;11794;49.730;10.088;2023-04-15T02:25:21;6.00;99.90
23251;DHT22;11794;49.730;10.088;2023-04-15T02:27:47;6.00;99.90
23251;DHT22;11794;49.730;10.088;2023-04-15T02:30:12;5.90;99.90
23251;DHT22;11794;49.730;10.088;2023-04-15T02:32:38;5.90;99.90
23251;DHT22;11794;49.730;10.088;2023-04-15T02:35:05;5.90;99.90
23251;DHT22;11794;49.730;10.088;2023-04-15T02:37:33;5.80;99.90
23251;DHT22;11794;49.730;10.088;2023-04-15T02:40:02;5.80;99.90
23251;DHT22;11794;49.730;10.088;2023-04-15T02:42:28;5.90;99.90
23251;DHT22;11794;49.730;10.088;2023-04-15T02:44:54;5.90;99.90
23251;DHT22;11794;49.730;10.088;2023-04-15T02:47:20;5.90;99.90
23251;DHT22;11794;49.730;10.088;2023-04-15T02:49:46;5.90;99.90
23251;DHT22;11794;49.730;10.088;2023-04-15T02:52:11;5.90;99.90
23251;DHT22;11794;49.730;10.088;2023-04-15T02:54:38;5.90;99.90
23251;DHT22;11794;49.730;10.088;2023-04-15T02:57:03;5.90;99.90
23251;DHT22;11794;49.730;10.088;2023-04-15T02:59:31;6.00;99.90
23251;DHT22;11794;49.730;10.088;2023-04-15T03:01:56;5.90;99.90
23251;DHT22;11794;49.730;10.088;2023-04-15T03:04:25;5.90;99.90
23251;DHT22;11794;49.730;10.088;2023-04-15T03:06:50;6.00;99.90
23251;DHT22;11794;49.730;10.088;2023-04-15T03:09:16;6.00;99.90
23251;DHT22;11794;49.730;10.088;2023-04-15T03:11:41;6.00;99.90
23251;DHT22;11794;49.730;10.088;2023-04-15T03:14:07;6.00;99.90
23251;DHT22;11794;49.730;10.088;2023-04-15T03:16:32;6.00;99.90
23251;DHT22;11794;49.730;10.088;2023-04-15T03:18:58;6.10;99.90
23251;DHT22;11794;49.730;10.088;2023-04-15T03:21:23;6.10;99.90
23251;DHT22;11794;49.730;10.088;2023-04-15T03:23:49;6.10;99.90
23251;DHT22;11794;49.730;10.088;2023-04-15T03:26:28;6.10;99.90
23251;DHT22;11794;49.730;10.088;2023-04-15T03:28:54;6.10;99.90
23251;DHT22;11794;49.730;10.088;2023-04-15T03:31:20;6.10;99.90
23251;DHT22;11794;49.730;10.088;2023-04-15T03:33:46;6.10;99.90
23251;DHT22;11794;49.730;10.088;2023-04-15T03:36:11;6.10;99.90
23251;DHT22;11794;49.730;10.088;2023-04-15T03:38:37;6.10;99.90
23251;DHT22;11794;49.730;10.088;2023-04-15T03:41:02;6.10;99.90
23251;DHT22;11794;49.730;10.088;2023-04-15T03:43:27;6.10;99.90
23251;DHT22;11794;49.730;10.088;2023-04-15T03:45:53;6.10;99.90
23251;DHT22;11794;49.730;10.088;2023-04-15T03:48:19;6.20;99.90
23251;DHT22;11794;49.730;10.088;2023-04-15T03:50:44;6.20;99.90
23251;DHT22;11794;49.730;10.088;2023-04-15T03:53:10;6.10;99.90
23251;DHT22;11794;49.730;10.088;2023-04-15T03:55:36;6.10;99.90
23251;DHT22;11794;49.730;10.088;2023-04-15T03:58:02;6.10;99.90
23251;DHT22;11794;49.730;10.088;2023-04-15T04:00:27;6.00;99.90
23251;DHT22;11794;49.730;10.088;2023-04-15T04:02:53;6.00;99.90
23251;DHT22;11794;49.730;10.088;2023-04-15T04:05:18;6.00;99.90
23251;DHT22;11794;49.730;10.088;2023-04-15T04:07:44;6.00;99.90
23251;DHT22;11794;49.730;10.088;2023-04-15T04:10:09;6.00;99.90
23251;DHT22;11794;49.730;10.088;2023-04-15T04:12:35;5.90;99.90
23251;DHT22;11794;49.730;10.088;2023-04-15T04:15:01;5.90;99.90
23251;DHT22;11794;49.730;10.088;2023-04-15T04:17:26;5.80;99.90
23251;DHT22;11794;49.730;10.088;2023-04-15T04:19:52;5.70;99.90
23251;DHT22;11794;49.730;10.088;2023-04-15T04:22:21;5.70;99.90
23251;DHT22;11794;49.730;10.088;2023-04-15T04:24:48;5.70;99.90
23251;DHT22;11794;49.730;10.088;2023-04-15T04:27:13;5.70;99.90
23251;DHT22;11794;49.730;10.088;2023-04-15T04:29:39;5.70;99.90
23251;DHT22;11794;49.730;10.088;2023-04-15T04:32:04;5.70;99.90
23251;DHT22;11794;49.730;10.088;2023-04-15T04:34:30;5.70;99.90
23251;DHT22;11794;49.730;10.088;2023-04-15T04:36:56;5.80;99.90
23251;DHT22;11794;49.730;10.088;2023-04-15T04:39:22;5.80;99.90
23251;DHT22;11794;49.730;10.088;2023-04-15T04:41:48;5.80;99.90
23251;DHT22;11794;49.730;10.088;2023-04-15T04:44:13;5.80;99.90
23251;DHT22;11794;49.730;10.088;2023-04-15T04:46:39;5.80;99.90
23251;DHT22;11794;49.730;10.088;2023-04-15T04:49:04;5.80;99.90
23251;DHT22;11794;49.730;10.088;2023-04-15T04:51:30;5.80;99.90
23251;DHT22;11794;49.730;10.088;2023-04-15T04:53:56;5.80;99.90
23251;DHT22;11794;49.730;10.088;2023-04-15T04:56:22;5.80;99.90
23251;DHT22;11794;49.730;10.088;2023-04-15T04:58:47;5.80;99.90
23251;DHT22;11794;49.730;10.088;2023-04-15T05:01:13;5.80;99.90
23251;DHT22;11794;49.730;10.088;2023-04-15T05:03:38;5.80;99.90
23251;DHT22;11794;49.730;10.088;2023-04-15T05:06:04;5.80;99.90
23251;DHT22;11794;49.730;10.088;2023-04-15T05:08:31;5.80;99.90
23251;DHT22;11794;49.730;10.088;2023-04-15T05:10:57;5.90;99.90
23251;DHT22;11794;49.730;10.088;2023-04-15T05:13:22;6.00;99.90
23251;DHT22;11794;49.730;10.088;2023-04-15T05:15:48;6.00;99.90
23251;DHT22;11794;49.730;10.088;2023-04-15T05:18:13;6.00;99.90
23251;DHT22;11794;49.730;10.088;2023-04-15T05:20:39;6.00;99.90
23251;DHT22;11794;49.730;10.088;2023-04-15T05:23:04;6.00;99.90
23251;DHT22;11794;49.730;10.088;2023-04-15T05:25:30;6.10;99.90
23251;DHT22;11794;49.730;10.088;2023-04-15T05:27:55;6.10;99.90
23251;DHT22;11794;49.730;10.088;2023-04-15T05:30:21;6.20;99.90
23251;DHT22;11794;49.730;10.088;2023-04-15T05:32:47;6.30;99.90
23251;DHT22;11794;49.730;10.088;2023-04-15T05:35:12;6.40;99.90
23251;DHT22;11794;49.730;10.088;2023-04-15T05:37:38;6.50;99.90
23251;DHT22;11794;49.730;10.088;2023-04-15T05:40:03;6.60;99.90
23251;DHT22;11794;49.730;10.088;2023-04-15T05:42:29;6.50;99.90
23251;DHT22;11794;49.730;10.088;2023-04-15T05:44:55;6.60;99.90
23251;DHT22;11794;49.730;10.088;2023-04-15T05:47:20;6.70;99.90
23251;DHT22;11794;49.730;10.088;2023-04-15T05:49:46;6.70;99.90
23251;DHT22;11794;49.730;10.088;2023-04-15T05:52:11;6.60;99.90
23251;DHT22;11794;49.730;10.088;2023-04-15T05:54:37;6.70;99.90
23251;DHT22;11794;49.730;10.088;2023-04-15T05:57:02;6.60;99.90
23251;DHT22;11794;49.730;10.088;2023-04-15T05:59:28;6.60;99.90
23251;DHT22;11794;49.730;10.088;2023-04-15T06:01:54;6.70;99.90
23251;DHT22;11794;49.730;10.088;2023-04-15T06:04:19;6.70;99.90
23251;DHT22;11794;49.730;10.088;2023-04-15T06:06:45;6.80;99.90
23251;DHT22;11794;49.730;10.088;2023-04-15T06:09:10;6.90;99.90
23251;DHT22;11794;49.730;10.088;2023-04-15T06:11:36;7.00;99.90
23251;DHT22;11794;49.730;10.088;2023-04-15T06:14:01;7.10;99.90
23251;DHT22;11794;49.730;10.088;2023-04-15T06:16:27;7.20;99.90
23251;DHT22;11794;49.730;10.088;2023-04-15T06:18:52;7.40;99.90
23251;DHT22;11794;49.730;10.088;2023-04-15T06:21:18;7.50;99.90
23251;DHT22;11794;49.730;10.088;2023-04-15T06:23:43;7.70;99.90
23251;DHT22;11794;49.730;10.088;2023-04-15T06:26:09;7.80;99.90
23251;DHT22;11794;49.730;10.088;2023-04-15T06:28:35;8.00;99.90
23251;DHT22;11794;49.730;10.088;2023-04-15T06:31:00;8.10;99.90
23251;DHT22;11794;49.730;10.088;2023-04-15T06:33:26;8.20;99.90
23251;DHT22;11794;49.730;10.088;2023-04-15T06:35:52;8.40;99.90
23251;DHT22;11794;49.730;10.088;2023-04-15T06:38:17;8.50;99.90
23251;DHT22;11794;49.730;10.088;2023-04-15T06:40:43;8.70;99.90
23251;DHT22;11794;49.730;10.088;2023-04-15T06:43:08;8.70;99.90
23251;DHT22;11794;49.730;10.088;2023-04-15T06:45:34;8.80;99.90
23251;DHT22;11794;49.730;10.088;2023-04-15T06:48:00;8.80;99.90
23251;DHT22;11794;49.730;10.088;2023-04-15T06:50:26;8.80;99.90
23251;DHT22;11794;49.730;10.088;2023-04-15T06:52:53;8.90;99.90
23251;DHT22;11794;49.730;10.088;2023-04-15T06:55:18;9.00;99.90
23251;DHT22;11794;49.730;10.088;2023-04-15T06:57:44;9.00;99.90
23251;DHT22;11794;49.730;10.088;2023-04-15T07:00:10;9.10;99.90
23251;DHT22;11794;49.730;10.088;2023-04-15T07:02:36;9.20;99.90
23251;DHT22;11794;49.730;10.088;2023-04-15T07:05:02;9.30;99.90
23251;DHT22;11794;49.730;10.088;2023-04-15T07:07:29;9.20;99.90
23251;DHT22;11794;49.730;10.088;2023-04-15T07:09:54;9.10;99.90
23251;DHT22;11794;49.730;10.088;2023-04-15T07:12:20;9.10;99.90
23251;DHT22;11794;49.730;10.088;2023-04-15T07:14:46;9.10;99.90
23251;DHT22;11794;49.730;10.088;2023-04-15T07:17:11;9.20;99.90
23251;DHT22;11794;49.730;10.088;2023-04-15T07:19:37;9.30;99.90
23251;DHT22;11794;49.730;10.088;2023-04-15T07:22:03;9.50;99.90
23251;DHT22;11794;49.730;10.088;2023-04-15T07:24:28;9.60;99.90
23251;DHT22;11794;49.730;10.088;2023-04-15T07:26:54;9.80;99.90
23251;DHT22;11794;49.730;10.088;2023-04-15T07:29:22;10.00;99.90
23251;DHT22;11794;49.730;10.088;2023-04-15T07:31:47;10.20;99.90
23251;DHT22;11794;49.730;10.088;2023-04-15T07:34:13;10.20;99.90
23251;DHT22;11794;49.730;10.088;2023-04-15T07:36:38;10.20;99.90
23251;DHT22;11794;49.730;10.088;2023-04-15T07:39:04;10.20;99.90
23251;DHT22;11794;49.730;10.088;2023-04-15T07:41:30;10.20;99.90
23251;DHT22;11794;49.730;10.088;2023-04-15T07:43:56;10.20;99.90
23251;DHT22;11794;49.730;10.088;2023-04-15T07:46:21;10.30;99.90
23251;DHT22;11794;49.730;10.088;2023-04-15T07:48:49;10.30;99.90
23251;DHT22;11794;49.730;10.088;2023-04-15T07:51:15;10.30;99.90
23251;DHT22;11794;49.730;10.088;2023-04-15T07:53:42;10.30;99.90
23251;DHT22;11794;49.730;10.088;2023-04-15T07:56:07;10.50;99.90
23251;DHT22;11794;49.730;10.088;2023-04-15T07:58:33;10.60;99.90
23251;DHT22;11794;49.730;10.088;2023-04-15T08:00:58;10.80;99.90
23251;DHT22;11794;49.730;10.088;2023-04-15T08:03:24;10.80;99.90
23251;DHT22;11794;49.730;10.088;2023-04-15T08:05:49;10.80;99.90
23251;DHT22;11794;49.730;10.088;2023-04-15T08:08:15;10.80;99.90
23251;DHT22;11794;49.730;10.088;2023-04-15T08:10:41;10.60;99.90
23251;DHT22;11794;49.730;10.088;2023-04-15T08:13:06;10.50;99.90
23251;DHT22;11794;49.730;10.088;2023-04-15T08:15:32;10.50;99.90
23251;DHT22;11794;49.730;10.088;2023-04-15T08:17:57;10.60;99.90
23251;DHT22;11794;49.730;10.088;2023-04-15T08:20:25;10.60;99.90
23251;DHT22;11794;49.730;10.088;2023-04-15T08:22:51;10.70;99.90
23251;DHT22;11794;49.730;10.088;2023-04-15T08:25:17;10.70;99.90
23251;DHT22;11794;49.730;10.088;2023-04-15T08:27:44;10.90;99.90
23251;DHT22;11794;49.730;10.088;2023-04-15T08:30:10;10.90;99.90
23251;DHT22;11794;49.730;10.088;2023-04-15T08:32:36;10.90;99.90
23251;DHT22;11794;49.730;10.088;2023-04-15T08:35:02;11.10;99.90
23251;DHT22;11794;49.730;10.088;2023-04-15T08:37:27;11.10;99.90
23251;DHT22;11794;49.730;10.088;2023-04-15T08:39:53;11.10;99.90
23251;DHT22;11794;49.730;10.088;2023-04-15T08:42:23;11.20;99.90
23251;DHT22;11794;49.730;10.088;2023-04-15T08:44:52;11.10;99.90
23251;DHT22;11794;49.730;10.088;2023-04-15T08:47:19;11.10;99.90
23251;DHT22;11794;49.730;10.088;2023-04-15T08:49:47;10.90;99.90
23251;DHT22;11794;49.730;10.088;2023-04-15T08:52:18;10.80;99.90
23251;DHT22;11794;49.730;10.088;2023-04-15T08:54:44;10.60;99.90
23251;DHT22;11794;49.730;10.088;2023-04-15T08:57:10;10.70;99.90
23251;DHT22;11794;49.730;10.088;2023-04-15T08:59:35;10.90;99.90
23251;DHT22;11794;49.730;10.088;2023-04-15T09:02:01;11.10;99.90
23251;DHT22;11794;49.730;10.088;2023-04-15T09:04:27;11.20;99.90
23251;DHT22;11794;49.730;10.088;2023-04-15T09:06:53;11.00;99.90
23251;DHT22;11794;49.730;10.088;2023-04-15T09:09:19;11.00;99.90
23251;DHT22;11794;49.730;10.088;2023-04-15T09:11:44;11.00;99.90
23251;DHT22;11794;49.730;10.088;2023-04-15T09:14:10;11.10;99.90
23251;DHT22;11794;49.730;10.088;2023-04-15T09:16:55;10.90;99.90
23251;DHT22;11794;49.730;10.088;2023-04-15T09:19:23;10.90;99.90
23251;DHT22;11794;49.730;10.088;2023-04-15T09:21:50;10.80;99.90
23251;DHT22;11794;49.730;10.088;2023-04-15T09:24:17;10.30;99.90
23251;DHT22;11794;49.730;10.088;2023-04-15T09:26:43;9.90;99.90
23251;DHT22;11794;49.730;10.088;2023-04-15T09:29:09;9.70;99.90
23251;DHT22;11794;49.730;10.088;2023-04-15T09:31:38;9.60;99.90
23251;DHT22;11794;49.730;10.088;2023-04-15T09:34:05;9.60;99.90
23251;DHT22;11794;49.730;10.088;2023-04-15T09:39:12;9.80;99.90
23251;DHT22;11794;49.730;10.088;2023-04-15T09:41:38;10.00;99.90
23251;DHT22;11794;49.730;10.088;2023-04-15T09:44:03;10.10;99.90
23251;DHT22;11794;49.730;10.088;2023-04-15T09:46:43;9.90;99.90
23251;DHT22;11794;49.730;10.088;2023-04-15T09:49:11;9.90;99.90
23251;DHT22;11794;49.730;10.088;2023-04-15T09:51:37;10.10;99.90
23251;DHT22;11794;49.730;10.088;2023-04-15T09:54:02;10.00;99.90
23251;DHT22;11794;49.730;10.088;2023-04-15T09:56:36;9.90;99.90
23251;DHT22;11794;49.730;10.088;2023-04-15T09:59:04;9.60;99.90
23251;DHT22;11794;49.730;10.088;2023-04-15T10:01:30;9.50;99.90
23251;DHT22;11794;49.730;10.088;2023-04-15T10:03:56;9.40;99.90
23251;DHT22;11794;49.730;10.088;2023-04-15T10:06:24;9.40;99.90
23251;DHT22;11794;49.730;10.088;2023-04-15T10:08:50;9.40;99.90
23251;DHT22;11794;49.730;10.088;2023-04-15T10:11:17;9.50;99.90
23251;DHT22;11794;49.730;10.088;2023-04-15T10:13:44;9.40;99.90
23251;DHT22;11794;49.730;10.088;2023-04-15T10:16:13;9.60;99.90
23251;DHT22;11794;49.730;10.088;2023-04-15T10:18:44;9.70;99.90
23251;DHT22;11794;49.730;10.088;2023-04-15T10:21:12;9.70;99.90
23251;DHT22;11794;49.730;10.088;2023-04-15T10:23:46;9.90;99.90
23251;DHT22;11794;49.730;10.088;2023-04-15T10:26:12;9.90;99.90
23251;DHT22;11794;49.730;10.088;2023-04-15T10:28:39;9.90;99.90
23251;DHT22;11794;49.730;10.088;2023-04-15T10:31:06;9.90;99.90
23251;DHT22;11794;49.730;10.088;2023-04-15T10:33:32;9.80;99.90
23251;DHT22;11794;49.730;10.088;2023-04-15T10:35:59;9.60;99.90
23251;DHT22;11794;49.730;10.088;2023-04-15T10:38:39;9.70;99.90
23251;DHT22;11794;49.730;10.088;2023-04-15T10:41:18;9.70;99.90
23251;DHT22;11794;49.730;10.088;2023-04-15T10:43:55;9.60;99.90
23251;DHT22;11794;49.730;10.088;2023-04-15T10:46:35;9.70;99.90
23251;DHT22;11794;49.730;10.088;2023-04-15T10:51:46;9.80;99.90
23251;DHT22;11794;49.730;10.088;2023-04-15T10:59:28;9.80;99.90
23251;DHT22;11794;49.730;10.088;2023-04-15T11:04:58;9.60;99.90
23251;DHT22;11794;49.730;10.088;2023-04-15T11:07:41;9.50;99.90
23251;DHT22;11794;49.730;10.088;2023-04-15T11:12:38;9.30;99.90
23251;DHT22;11794;49.730;10.088;2023-04-15T11:17:51;9.20;99.90
23251;DHT22;11794;49.730;10.088;2023-04-15T11:20:17;9.20;99.90
23251;DHT22;11794;49.730;10.088;2023-04-15T11:22:47;9.20;99.90
23251;DHT22;11794;49.730;10.088;2023-04-15T11:25:25;9.10;99.90
23251;DHT22;11794;49.730;10.088;2023-04-15T11:27:51;9.20;99.90
23251;DHT22;11794;49.730;10.088;2023-04-15T11:30:32;9.20;99.90
23251;DHT22;11794;49.730;10.088;2023-04-15T11:33:10;9.20;99.90
23251;DHT22;11794;49.730;10.088;2023-04-15T11:35:40;9.30;99.90
23251;DHT22;11794;49.730;10.088;2023-04-15T11:38:11;9.30;99.90
23251;DHT22;11794;49.730;10.088;2023-04-15T11:40:37;9.40;99.90
23251;DHT22;11794;49.730;10.088;2023-04-15T11:43:15;9.50;99.90
23251;DHT22;11794;49.730;10.088;2023-04-15T11:48:18;9.60;99.90
23251;DHT22;11794;49.730;10.088;2023-04-15T11:50:44;9.50;99.90
23251;DHT22;11794;49.730;10.088;2023-04-15T11:53:12;9.60;99.90
23251;DHT22;11794;49.730;10.088;2023-04-15T11:55:42;9.80;99.90
23251;DHT22;11794;49.730;10.088;2023-04-15T11:58:19;9.90;99.90
23251;DHT22;11794;49.730;10.088;2023-04-15T12:03:29;10.00;99.90
23251;DHT22;11794;49.730;10.088;2023-04-15T12:09:03;9.90;99.90
23251;DHT22;11794;49.730;10.088;2023-04-15T12:11:49;9.80;99.90
23251;DHT22;11794;49.730;10.088;2023-04-15T12:14:30;9.60;99.90
23251;DHT22;11794;49.730;10.088;2023-04-15T12:16:58;9.50;99.90
23251;DHT22;11794;49.730;10.088;2023-04-15T12:19:28;9.30;99.90
23251;DHT22;11794;49.730;10.088;2023-04-15T12:21:58;9.20;99.90
23251;DHT22;11794;49.730;10.088;2023-04-15T12:24:24;9.20;99.90
23251;DHT22;11794;49.730;10.088;2023-04-15T12:26:52;9.20;99.90
23251;DHT22;11794;49.730;10.088;2023-04-15T12:29:18;9.20;99.90
23251;DHT22;11794;49.730;10.088;2023-04-15T12:34:15;9.20;99.90
23251;DHT22;11794;49.730;10.088;2023-04-15T12:36:41;9.20;99.90
23251;DHT22;11794;49.730;10.088;2023-04-15T12:39:06;9.30;99.90
23251;DHT22;11794;49.730;10.088;2023-04-15T12:41:32;9.40;99.90
23251;DHT22;11794;49.730;10.088;2023-04-15T12:43:58;9.50;99.90
23251;DHT22;11794;49.730;10.088;2023-04-15T12:46:24;9.50;99.90
23251;DHT22;11794;49.730;10.088;2023-04-15T12:48:50;9.50;99.90
23251;DHT22;11794;49.730;10.088;2023-04-15T12:51:17;9.50;99.90
23251;DHT22;11794;49.730;10.088;2023-04-15T12:53:43;9.60;99.90
23251;DHT22;11794;49.730;10.088;2023-04-15T12:56:08;9.30;99.90
23251;DHT22;11794;49.730;10.088;2023-04-15T12:58:34;9.20;99.90
23251;DHT22;11794;49.730;10.088;2023-04-15T13:00:59;9.00;99.90
23251;DHT22;11794;49.730;10.088;2023-04-15T13:03:25;9.00;99.90
23251;DHT22;11794;49.730;10.088;2023-04-15T13:05:50;9.00;99.90
23251;DHT22;11794;49.730;10.088;2023-04-15T13:08:16;9.00;99.90
23251;DHT22;11794;49.730;10.088;2023-04-15T13:10:42;9.10;99.90
23251;DHT22;11794;49.730;10.088;2023-04-15T13:13:08;9.30;99.90
23251;DHT22;11794;49.730;10.088;2023-04-15T13:15:33;9.30;99.90
23251;DHT22;11794;49.730;10.088;2023-04-15T13:17:59;9.30;99.90
23251;DHT22;11794;49.730;10.088;2023-04-15T13:20:25;9.30;99.90
23251;DHT22;11794;49.730;10.088;2023-04-15T13:22:52;9.40;99.90
23251;DHT22;11794;49.730;10.088;2023-04-15T13:25:17;9.70;99.90
23251;DHT22;11794;49.730;10.088;2023-04-15T13:27:43;9.90;99.90
23251;DHT22;11794;49.730;10.088;2023-04-15T13:30:09;10.20;99.90
23251;DHT22;11794;49.730;10.088;2023-04-15T13:32:34;10.50;99.90
23251;DHT22;11794;49.730;10.088;2023-04-15T13:35:00;10.70;99.90
23251;DHT22;11794;49.730;10.088;2023-04-15T13:37:27;10.60;99.90
23251;DHT22;11794;49.730;10.088;2023-04-15T13:39:53;10.20;99.90
23251;DHT22;11794;49.730;10.088;2023-04-15T13:42:19;10.00;99.90
23251;DHT22;11794;49.730;10.088;2023-04-15T13:44:44;9.90;99.90
23251;DHT22;11794;49.730;10.088;2023-04-15T13:47:10;9.90;99.90
23251;DHT22;11794;49.730;10.088;2023-04-15T13:49:35;9.90;99.90
23251;DHT22;11794;49.730;10.088;2023-04-15T13:52:01;9.80;99.90
23251;DHT22;11794;49.730;10.088;2023-04-15T13:54:26;9.80;99.90
23251;DHT22;11794;49.730;10.088;2023-04-15T13:56:53;9.60;99.90
23251;DHT22;11794;49.730;10.088;2023-04-15T13:59:20;9.50;99.90
23251;DHT22;11794;49.730;10.088;2023-04-15T14:01:46;9.60;99.90
23251;DHT22;11794;49.730;10.088;2023-04-15T14:04:12;9.50;99.90
23251;DHT22;11794;49.730;10.088;2023-04-15T14:06:37;9.50;99.90
23251;DHT22;11794;49.730;10.088;2023-04-15T14:09:03;9.40;99.90
23251;DHT22;11794;49.730;10.088;2023-04-15T14:11:28;9.30;99.90
23251;DHT22;11794;49.730;10.088;2023-04-15T14:13:54;9.30;99.90
23251;DHT22;11794;49.730;10.088;2023-04-15T14:16:19;9.30;99.90
23251;DHT22;11794;49.730;10.088;2023-04-15T14:18:45;9.40;99.90
23251;DHT22;11794;49.730;10.088;2023-04-15T14:21:10;9.40;99.90
23251;DHT22;11794;49.730;10.088;2023-04-15T14:23:36;9.30;99.90
23251;DHT22;11794;49.730;10.088;2023-04-15T14:26:01;9.30;99.90
23251;DHT22;11794;49.730;10.088;2023-04-15T14:28:27;9.20;99.90
23251;DHT22;11794;49.730;10.088;2023-04-15T14:30:53;9.30;99.90
23251;DHT22;11794;49.730;10.088;2023-04-15T14:33:19;9.20;99.90
23251;DHT22;11794;49.730;10.088;2023-04-15T14:35:44;9.30;99.90
23251;DHT22;11794;49.730;10.088;2023-04-15T14:38:10;9.20;99.90
23251;DHT22;11794;49.730;10.088;2023-04-15T14:40:36;9.20;99.90
23251;DHT22;11794;49.730;10.088;2023-04-15T14:43:02;9.20;99.90
23251;DHT22;11794;49.730;10.088;2023-04-15T14:45:29;9.20;99.90
23251;DHT22;11794;49.730;10.088;2023-04-15T14:47:55;9.20;99.90
23251;DHT22;11794;49.730;10.088;2023-04-15T14:50:20;9.30;99.90
23251;DHT22;11794;49.730;10.088;2023-04-15T14:52:46;9.40;99.90
23251;DHT22;11794;49.730;10.088;2023-04-15T14:55:12;9.40;99.90
23251;DHT22;11794;49.730;10.088;2023-04-15T14:57:38;9.60;99.90
23251;DHT22;11794;49.730;10.088;2023-04-15T15:00:05;9.80;99.90
23251;DHT22;11794;49.730;10.088;2023-04-15T15:02:32;9.80;99.90
23251;DHT22;11794;49.730;10.088;2023-04-15T15:04:59;9.90;99.90
23251;DHT22;11794;49.730;10.088;2023-04-15T15:07:25;9.70;99.90
23251;DHT22;11794;49.730;10.088;2023-04-15T15:09:50;9.70;99.90
23251;DHT22;11794;49.730;10.088;2023-04-15T15:12:16;9.60;99.90
23251;DHT22;11794;49.730;10.088;2023-04-15T15:14:41;9.60;99.90
23251;DHT22;11794;49.730;10.088;2023-04-15T15:17:07;9.50;99.90
23251;DHT22;11794;49.730;10.088;2023-04-15T15:19:32;9.50;99.90
23251;DHT22;11794;49.730;10.088;2023-04-15T15:21:58;9.30;99.90
23251;DHT22;11794;49.730;10.088;2023-04-15T15:24:23;9.20;99.90
23251;DHT22;11794;49.730;10.088;2023-04-15T15:26:49;9.20;99.90
23251;DHT22;11794;49.730;10.088;2023-04-15T15:29:15;9.20;99.90
23251;DHT22;11794;49.730;10.088;2023-04-15T15:31:40;9.20;99.90
23251;DHT22;11794;49.730;10.088;2023-04-15T15:34:06;9.20;99.90
23251;DHT22;11794;49.730;10.088;2023-04-15T15:36:31;9.10;99.90
23251;DHT22;11794;49.730;10.088;2023-04-15T15:38:57;9.10;99.90
23251;DHT22;11794;49.730;10.088;2023-04-15T15:41:23;9.10;99.90
23251;DHT22;11794;49.730;10.088;2023-04-15T15:43:50;9.10;99.90
23251;DHT22;11794;49.730;10.088;2023-04-15T15:46:15;9.10;99.90
23251;DHT22;11794;49.730;10.088;2023-04-15T15:48:41;9.00;99.90
23251;DHT22;11794;49.730;10.088;2023-04-15T15:51:07;9.00;99.90
23251;DHT22;11794;49.730;10.088;2023-04-15T15:53:33;9.00;99.90